sensor_id;sensor_type;location;lat;lon;timestamp;P1;durP1;ratioP1;P2;durP2;ratioP2
19396;SDS011;9834;48.076;11.878;2022-07-29T00:01:46;2.03;;;1.93;;
19396;SDS011;9834;48.076;11.878;2022-07-29T00:04:13;1.80;;;1.63;;
19396;SDS011;9834;48.076;11.878;2022-07-29T00:06:40;2.20;;;2.10;;
19396;SDS011;9834;48.076;11.878;2022-07-29T00:09:10;1.90;;;1.50;;
19396;SDS011;9834;48.076;11.878;2022-07-29T00:11:37;2.70;;;1.47;;
19396;SDS011;9834;48.076;11.878;2022-07-29T00:14:04;1.83;;;1.63;;
19396;SDS011;9834;48.076;11.878;2022-07-29T00:16:31;2.37;;;1.43;;
19396;SDS011;9834;48.076;11.878;2022-07-29T00:18:58;1.93;;;1.50;;
19396;SDS011;9834;48.076;11.878;2022-07-29T00:21:26;1.40;;;1.30;;
19396;SDS011;9834;48.076;11.878;2022-07-29T00:23:53;1.40;;;1.30;;
19396;SDS011;9834;48.076;11.878;2022-07-29T00:26:21;1.83;;;1.17;;
19396;SDS011;9834;48.076;11.878;2022-07-29T00:28:48;1.30;;;1.03;;
19396;SDS011;9834;48.076;11.878;2022-07-29T00:31:15;1.20;;;1.10;;
19396;SDS011;9834;48.076;11.878;2022-07-29T00:33:42;5.87;;;1.00;;
19396;SDS011;9834;48.076;11.878;2022-07-29T00:36:09;1.13;;;1.03;;
19396;SDS011;9834;48.076;11.878;2022-07-29T00:38:35;1.87;;;1.10;;
19396;SDS011;9834;48.076;11.878;2022-07-29T00:41:02;1.53;;;1.20;;
19396;SDS011;9834;48.076;11.878;2022-07-29T00:43:30;1.20;;;1.10;;
19396;SDS011;9834;48.076;11.878;2022-07-29T00:45:57;1.47;;;1.37;;
19396;SDS011;9834;48.076;11.878;2022-07-29T00:48:24;1.30;;;0.97;;
19396;SDS011;9834;48.076;11.878;2022-07-29T00:50:51;1.30;;;1.20;;
19396;SDS011;9834;48.076;11.878;2022-07-29T00:53:18;1.07;;;0.97;;
19396;SDS011;9834;48.076;11.878;2022-07-29T00:55:46;2.37;;;1.17;;
19396;SDS011;9834;48.076;11.878;2022-07-29T00:58:13;1.23;;;1.03;;
19396;SDS011;9834;48.076;11.878;2022-07-29T01:00:42;2.43;;;1.43;;
19396;SDS011;9834;48.076;11.878;2022-07-29T01:03:09;1.30;;;1.20;;
19396;SDS011;9834;48.076;11.878;2022-07-29T01:05:36;1.40;;;1.30;;
19396;SDS011;9834;48.076;11.878;2022-07-29T01:08:03;1.50;;;1.00;;
19396;SDS011;9834;48.076;11.878;2022-07-29T01:10:31;2.57;;;1.50;;
19396;SDS011;9834;48.076;11.878;2022-07-29T01:12:58;1.27;;;1.17;;
19396;SDS011;9834;48.076;11.878;2022-07-29T01:15:27;1.50;;;1.23;;
19396;SDS011;9834;48.076;11.878;2022-07-29T01:17:59;1.50;;;1.30;;
19396;SDS011;9834;48.076;11.878;2022-07-29T01:20:39;1.07;;;0.97;;
19396;SDS011;9834;48.076;11.878;2022-07-29T01:26:22;4.00;;;1.67;;
19396;SDS011;9834;48.076;11.878;2022-07-29T01:29:03;1.63;;;1.50;;
19396;SDS011;9834;48.076;11.878;2022-07-29T01:31:39;2.53;;;1.10;;
19396;SDS011;9834;48.076;11.878;2022-07-29T01:34:12;1.80;;;1.40;;
19396;SDS011;9834;48.076;11.878;2022-07-29T01:36:48;2.60;;;1.43;;
19396;SDS011;9834;48.076;11.878;2022-07-29T01:39:18;1.93;;;1.20;;
19396;SDS011;9834;48.076;11.878;2022-07-29T01:41:51;2.37;;;1.17;;
19396;SDS011;9834;48.076;11.878;2022-07-29T01:44:26;1.10;;;1.00;;
19396;SDS011;9834;48.076;11.878;2022-07-29T01:46:58;1.37;;;1.27;;
19396;SDS011;9834;48.076;11.878;2022-07-29T01:49:31;1.33;;;1.03;;
19396;SDS011;9834;48.076;11.878;2022-07-29T01:52:03;2.20;;;1.20;;
19396;SDS011;9834;48.076;11.878;2022-07-29T01:54:35;1.77;;;1.27;;
19396;SDS011;9834;48.076;11.878;2022-07-29T01:57:08;1.03;;;1.00;;
19396;SDS011;9834;48.076;11.878;2022-07-29T01:59:40;1.00;;;1.00;;
19396;SDS011;9834;48.076;11.878;2022-07-29T02:02:09;3.27;;;1.17;;
19396;SDS011;9834;48.076;11.878;2022-07-29T02:04:37;2.23;;;1.30;;
19396;SDS011;9834;48.076;11.878;2022-07-29T02:07:07;1.90;;;1.30;;
19396;SDS011;9834;48.076;11.878;2022-07-29T02:09:37;1.30;;;1.10;;
19396;SDS011;9834;48.076;11.878;2022-07-29T02:12:05;1.50;;;1.30;;
19396;SDS011;9834;48.076;11.878;2022-07-29T02:14:35;1.30;;;1.20;;
19396;SDS011;9834;48.076;11.878;2022-07-29T02:17:05;1.20;;;1.10;;
19396;SDS011;9834;48.076;11.878;2022-07-29T02:19:33;1.77;;;1.30;;
19396;SDS011;9834;48.076;11.878;2022-07-29T02:22:03;1.60;;;1.50;;
19396;SDS011;9834;48.076;11.878;2022-07-29T02:24:31;1.70;;;1.40;;
19396;SDS011;9834;48.076;11.878;2022-07-29T02:27:01;1.80;;;1.37;;
19396;SDS011;9834;48.076;11.878;2022-07-29T02:29:30;1.40;;;1.30;;
19396;SDS011;9834;48.076;11.878;2022-07-29T02:31:58;1.40;;;1.30;;
19396;SDS011;9834;48.076;11.878;2022-07-29T02:34:28;1.60;;;1.43;;
19396;SDS011;9834;48.076;11.878;2022-07-29T02:36:56;2.20;;;1.50;;
19396;SDS011;9834;48.076;11.878;2022-07-29T02:39:24;1.30;;;1.20;;
19396;SDS011;9834;48.076;11.878;2022-07-29T02:41:55;1.47;;;1.37;;
19396;SDS011;9834;48.076;11.878;2022-07-29T02:44:25;1.50;;;1.40;;
19396;SDS011;9834;48.076;11.878;2022-07-29T02:46:53;1.30;;;1.20;;
19396;SDS011;9834;48.076;11.878;2022-07-29T02:49:30;1.33;;;1.20;;
19396;SDS011;9834;48.076;11.878;2022-07-29T02:52:02;1.40;;;1.30;;
19396;SDS011;9834;48.076;11.878;2022-07-29T02:54:31;1.27;;;1.00;;
19396;SDS011;9834;48.076;11.878;2022-07-29T02:57:04;1.80;;;1.40;;
19396;SDS011;9834;48.076;11.878;2022-07-29T02:59:37;1.93;;;1.50;;
19396;SDS011;9834;48.076;11.878;2022-07-29T03:02:08;1.50;;;1.37;;
19396;SDS011;9834;48.076;11.878;2022-07-29T03:04:37;1.40;;;1.30;;
19396;SDS011;9834;48.076;11.878;2022-07-29T03:07:07;2.73;;;1.47;;
19396;SDS011;9834;48.076;11.878;2022-07-29T03:09:36;1.40;;;1.30;;
19396;SDS011;9834;48.076;11.878;2022-07-29T03:12:04;1.60;;;1.20;;
19396;SDS011;9834;48.076;11.878;2022-07-29T03:14:32;1.30;;;1.23;;
19396;SDS011;9834;48.076;11.878;2022-07-29T03:17:01;1.10;;;1.03;;
19396;SDS011;9834;48.076;11.878;2022-07-29T03:19:29;3.00;;;1.77;;
19396;SDS011;9834;48.076;11.878;2022-07-29T03:21:58;1.30;;;1.20;;
19396;SDS011;9834;48.076;11.878;2022-07-29T03:24:27;1.47;;;1.33;;
19396;SDS011;9834;48.076;11.878;2022-07-29T03:26:55;2.37;;;1.43;;
19396;SDS011;9834;48.076;11.878;2022-07-29T03:29:23;2.53;;;1.40;;
19396;SDS011;9834;48.076;11.878;2022-07-29T03:31:50;1.93;;;1.60;;
19396;SDS011;9834;48.076;11.878;2022-07-29T03:34:17;2.73;;;1.70;;
19396;SDS011;9834;48.076;11.878;2022-07-29T03:36:46;2.23;;;1.53;;
19396;SDS011;9834;48.076;11.878;2022-07-29T03:39:15;3.80;;;1.37;;
19396;SDS011;9834;48.076;11.878;2022-07-29T03:41:45;1.63;;;1.53;;
19396;SDS011;9834;48.076;11.878;2022-07-29T03:44:16;2.40;;;1.70;;
19396;SDS011;9834;48.076;11.878;2022-07-29T03:46:45;2.07;;;1.60;;
19396;SDS011;9834;48.076;11.878;2022-07-29T03:49:18;2.40;;;1.60;;
19396;SDS011;9834;48.076;11.878;2022-07-29T03:51:52;2.03;;;1.70;;
19396;SDS011;9834;48.076;11.878;2022-07-29T03:54:20;2.33;;;1.50;;
19396;SDS011;9834;48.076;11.878;2022-07-29T03:56:48;2.07;;;1.87;;
19396;SDS011;9834;48.076;11.878;2022-07-29T03:59:18;2.03;;;1.83;;
19396;SDS011;9834;48.076;11.878;2022-07-29T04:01:47;2.57;;;1.80;;
19396;SDS011;9834;48.076;11.878;2022-07-29T04:04:18;1.67;;;1.57;;
19396;SDS011;9834;48.076;11.878;2022-07-29T04:06:48;1.90;;;1.80;;
19396;SDS011;9834;48.076;11.878;2022-07-29T04:09:18;2.57;;;2.10;;
19396;SDS011;9834;48.076;11.878;2022-07-29T04:11:46;2.43;;;2.10;;
19396;SDS011;9834;48.076;11.878;2022-07-29T04:14:13;1.93;;;1.73;;
19396;SDS011;9834;48.076;11.878;2022-07-29T04:16:40;2.43;;;2.00;;
19396;SDS011;9834;48.076;11.878;2022-07-29T04:19:09;2.20;;;2.00;;
19396;SDS011;9834;48.076;11.878;2022-07-29T04:21:37;2.00;;;1.80;;
19396;SDS011;9834;48.076;11.878;2022-07-29T04:24:05;1.80;;;1.70;;
19396;SDS011;9834;48.076;11.878;2022-07-29T04:26:33;2.17;;;1.97;;
19396;SDS011;9834;48.076;11.878;2022-07-29T04:29:04;1.93;;;1.80;;
19396;SDS011;9834;48.076;11.878;2022-07-29T04:31:31;2.07;;;1.93;;
19396;SDS011;9834;48.076;11.878;2022-07-29T04:33:58;2.60;;;2.10;;
19396;SDS011;9834;48.076;11.878;2022-07-29T04:36:28;1.93;;;1.70;;
19396;SDS011;9834;48.076;11.878;2022-07-29T04:38:55;2.27;;;2.07;;
19396;SDS011;9834;48.076;11.878;2022-07-29T04:41:22;3.37;;;2.10;;
19396;SDS011;9834;48.076;11.878;2022-07-29T04:43:49;2.40;;;1.87;;
19396;SDS011;9834;48.076;11.878;2022-07-29T04:46:20;2.17;;;2.03;;
19396;SDS011;9834;48.076;11.878;2022-07-29T04:48:47;1.93;;;1.83;;
19396;SDS011;9834;48.076;11.878;2022-07-29T04:51:15;2.00;;;1.90;;
19396;SDS011;9834;48.076;11.878;2022-07-29T04:53:44;2.27;;;2.07;;
19396;SDS011;9834;48.076;11.878;2022-07-29T04:56:11;2.87;;;2.57;;
19396;SDS011;9834;48.076;11.878;2022-07-29T04:58:38;2.50;;;2.03;;
19396;SDS011;9834;48.076;11.878;2022-07-29T05:01:05;2.37;;;2.10;;
19396;SDS011;9834;48.076;11.878;2022-07-29T05:03:35;3.03;;;1.93;;
19396;SDS011;9834;48.076;11.878;2022-07-29T05:06:02;2.67;;;2.30;;
19396;SDS011;9834;48.076;11.878;2022-07-29T05:08:29;2.10;;;2.00;;
19396;SDS011;9834;48.076;11.878;2022-07-29T05:10:56;2.37;;;2.17;;
19396;SDS011;9834;48.076;11.878;2022-07-29T05:13:23;4.17;;;2.23;;
19396;SDS011;9834;48.076;11.878;2022-07-29T05:15:50;2.30;;;2.03;;
19396;SDS011;9834;48.076;11.878;2022-07-29T05:18:17;2.03;;;1.83;;
19396;SDS011;9834;48.076;11.878;2022-07-29T05:20:45;2.10;;;1.90;;
19396;SDS011;9834;48.076;11.878;2022-07-29T05:23:12;2.47;;;2.27;;
19396;SDS011;9834;48.076;11.878;2022-07-29T05:25:39;2.00;;;1.60;;
19396;SDS011;9834;48.076;11.878;2022-07-29T05:28:06;3.40;;;2.10;;
19396;SDS011;9834;48.076;11.878;2022-07-29T05:30:33;2.00;;;1.90;;
19396;SDS011;9834;48.076;11.878;2022-07-29T05:33:00;2.17;;;1.83;;
19396;SDS011;9834;48.076;11.878;2022-07-29T05:35:27;2.37;;;2.13;;
19396;SDS011;9834;48.076;11.878;2022-07-29T05:37:56;2.73;;;2.20;;
19396;SDS011;9834;48.076;11.878;2022-07-29T05:40:23;4.27;;;2.37;;
19396;SDS011;9834;48.076;11.878;2022-07-29T05:42:50;3.03;;;2.40;;
19396;SDS011;9834;48.076;11.878;2022-07-29T05:45:17;4.63;;;2.30;;
19396;SDS011;9834;48.076;11.878;2022-07-29T05:47:44;2.63;;;2.40;;
19396;SDS011;9834;48.076;11.878;2022-07-29T05:50:11;2.33;;;2.13;;
19396;SDS011;9834;48.076;11.878;2022-07-29T05:52:38;4.10;;;2.40;;
19396;SDS011;9834;48.076;11.878;2022-07-29T05:55:08;4.87;;;2.50;;
19396;SDS011;9834;48.076;11.878;2022-07-29T05:57:36;4.00;;;2.60;;
19396;SDS011;9834;48.076;11.878;2022-07-29T06:00:03;3.10;;;2.80;;
19396;SDS011;9834;48.076;11.878;2022-07-29T06:02:31;3.80;;;2.40;;
19396;SDS011;9834;48.076;11.878;2022-07-29T06:04:58;2.47;;;2.27;;
19396;SDS011;9834;48.076;11.878;2022-07-29T06:07:25;2.47;;;2.27;;
19396;SDS011;9834;48.076;11.878;2022-07-29T06:09:52;2.80;;;2.40;;
19396;SDS011;9834;48.076;11.878;2022-07-29T06:12:20;2.20;;;2.00;;
19396;SDS011;9834;48.076;11.878;2022-07-29T06:14:47;2.40;;;2.20;;
19396;SDS011;9834;48.076;11.878;2022-07-29T06:17:15;2.70;;;2.33;;
19396;SDS011;9834;48.076;11.878;2022-07-29T06:19:42;3.27;;;2.20;;
19396;SDS011;9834;48.076;11.878;2022-07-29T06:22:09;2.40;;;2.20;;
19396;SDS011;9834;48.076;11.878;2022-07-29T06:24:36;3.37;;;2.17;;
19396;SDS011;9834;48.076;11.878;2022-07-29T06:27:06;3.10;;;2.27;;
19396;SDS011;9834;48.076;11.878;2022-07-29T06:29:35;2.73;;;2.07;;
19396;SDS011;9834;48.076;11.878;2022-07-29T06:32:02;3.00;;;2.30;;
19396;SDS011;9834;48.076;11.878;2022-07-29T06:34:29;2.50;;;2.30;;
19396;SDS011;9834;48.076;11.878;2022-07-29T06:36:56;2.77;;;1.90;;
19396;SDS011;9834;48.076;11.878;2022-07-29T06:39:23;2.67;;;2.13;;
19396;SDS011;9834;48.076;11.878;2022-07-29T06:41:50;2.50;;;2.30;;
19396;SDS011;9834;48.076;11.878;2022-07-29T06:44:18;3.03;;;2.30;;
19396;SDS011;9834;48.076;11.878;2022-07-29T06:46:46;2.43;;;2.23;;
19396;SDS011;9834;48.076;11.878;2022-07-29T06:49:15;4.27;;;1.93;;
19396;SDS011;9834;48.076;11.878;2022-07-29T06:51:42;5.00;;;2.30;;
19396;SDS011;9834;48.076;11.878;2022-07-29T06:54:09;2.70;;;2.03;;
19396;SDS011;9834;48.076;11.878;2022-07-29T06:56:36;2.50;;;2.20;;
19396;SDS011;9834;48.076;11.878;2022-07-29T06:59:03;3.57;;;2.20;;
19396;SDS011;9834;48.076;11.878;2022-07-29T07:01:31;2.30;;;2.10;;
19396;SDS011;9834;48.076;11.878;2022-07-29T07:04:00;2.10;;;1.90;;
19396;SDS011;9834;48.076;11.878;2022-07-29T07:06:27;1.92;;;1.83;;
19396;SDS011;9834;48.076;11.878;2022-07-29T07:08:54;1.80;;;1.70;;
19396;SDS011;9834;48.076;11.878;2022-07-29T07:11:21;1.97;;;1.70;;
19396;SDS011;9834;48.076;11.878;2022-07-29T07:13:48;4.07;;;2.35;;
19396;SDS011;9834;48.076;11.878;2022-07-29T07:16:15;1.73;;;1.63;;
19396;SDS011;9834;48.076;11.878;2022-07-29T07:18:42;2.08;;;1.88;;
19396;SDS011;9834;48.076;11.878;2022-07-29T07:21:11;2.10;;;1.90;;
19396;SDS011;9834;48.076;11.878;2022-07-29T07:23:39;4.07;;;2.00;;
19396;SDS011;9834;48.076;11.878;2022-07-29T07:26:06;2.25;;;1.88;;
19396;SDS011;9834;48.076;11.878;2022-07-29T07:28:33;2.05;;;1.77;;
19396;SDS011;9834;48.076;11.878;2022-07-29T07:31:00;2.13;;;1.83;;
19396;SDS011;9834;48.076;11.878;2022-07-29T07:33:27;3.17;;;1.60;;
19396;SDS011;9834;48.076;11.878;2022-07-29T07:35:54;1.92;;;1.70;;
19396;SDS011;9834;48.076;11.878;2022-07-29T07:38:22;2.38;;;1.98;;
19396;SDS011;9834;48.076;11.878;2022-07-29T07:40:49;2.58;;;1.67;;
19396;SDS011;9834;48.076;11.878;2022-07-29T07:43:16;1.80;;;1.67;;
19396;SDS011;9834;48.076;11.878;2022-07-29T07:45:43;2.17;;;1.90;;
19396;SDS011;9834;48.076;11.878;2022-07-29T07:48:10;2.20;;;1.95;;
19396;SDS011;9834;48.076;11.878;2022-07-29T07:50:37;2.63;;;2.13;;
19396;SDS011;9834;48.076;11.878;2022-07-29T07:53:04;1.92;;;1.73;;
19396;SDS011;9834;48.076;11.878;2022-07-29T07:55:33;2.05;;;1.90;;
19396;SDS011;9834;48.076;11.878;2022-07-29T07:58:05;2.88;;;1.88;;
19396;SDS011;9834;48.076;11.878;2022-07-29T08:00:32;3.58;;;2.13;;
19396;SDS011;9834;48.076;11.878;2022-07-29T08:02:59;2.08;;;1.88;;
19396;SDS011;9834;48.076;11.878;2022-07-29T08:05:26;3.15;;;1.73;;
19396;SDS011;9834;48.076;11.878;2022-07-29T08:07:53;3.20;;;2.05;;
19396;SDS011;9834;48.076;11.878;2022-07-29T08:10:20;3.42;;;1.83;;
19396;SDS011;9834;48.076;11.878;2022-07-29T08:13:03;2.00;;;1.80;;
19396;SDS011;9834;48.076;11.878;2022-07-29T08:15:30;2.05;;;1.85;;
19396;SDS011;9834;48.076;11.878;2022-07-29T08:17:57;2.17;;;1.70;;
19396;SDS011;9834;48.076;11.878;2022-07-29T08:20:25;1.80;;;1.70;;
19396;SDS011;9834;48.076;11.878;2022-07-29T08:22:52;2.65;;;1.90;;
19396;SDS011;9834;48.076;11.878;2022-07-29T08:25:19;1.73;;;1.63;;
19396;SDS011;9834;48.076;11.878;2022-07-29T08:27:48;1.90;;;1.80;;
19396;SDS011;9834;48.076;11.878;2022-07-29T08:30:16;2.20;;;1.83;;
19396;SDS011;9834;48.076;11.878;2022-07-29T08:32:43;2.60;;;1.98;;
19396;SDS011;9834;48.076;11.878;2022-07-29T08:35:10;2.45;;;2.25;;
19396;SDS011;9834;48.076;11.878;2022-07-29T08:37:37;1.50;;;1.40;;
19396;SDS011;9834;48.076;11.878;2022-07-29T08:40:04;1.80;;;1.70;;
19396;SDS011;9834;48.076;11.878;2022-07-29T08:42:32;1.98;;;1.77;;
19396;SDS011;9834;48.076;11.878;2022-07-29T08:44:59;1.90;;;1.80;;
19396;SDS011;9834;48.076;11.878;2022-07-29T08:47:28;2.13;;;1.90;;
19396;SDS011;9834;48.076;11.878;2022-07-29T08:49:55;3.42;;;1.70;;
19396;SDS011;9834;48.076;11.878;2022-07-29T08:52:23;1.98;;;1.80;;
19396;SDS011;9834;48.076;11.878;2022-07-29T08:54:52;1.33;;;1.23;;
19396;SDS011;9834;48.076;11.878;2022-07-29T08:57:19;1.98;;;1.33;;
19396;SDS011;9834;48.076;11.878;2022-07-29T08:59:48;1.60;;;1.50;;
19396;SDS011;9834;48.076;11.878;2022-07-29T09:02:18;2.88;;;1.42;;
19396;SDS011;9834;48.076;11.878;2022-07-29T09:04:48;1.92;;;1.83;;
19396;SDS011;9834;48.076;11.878;2022-07-29T09:07:15;2.10;;;1.73;;
19396;SDS011;9834;48.076;11.878;2022-07-29T09:09:43;1.70;;;1.45;;
19396;SDS011;9834;48.076;11.878;2022-07-29T09:12:11;1.90;;;1.70;;
19396;SDS011;9834;48.076;11.878;2022-07-29T09:14:39;2.17;;;1.98;;
19396;SDS011;9834;48.076;11.878;2022-07-29T09:17:06;1.88;;;1.60;;
19396;SDS011;9834;48.076;11.878;2022-07-29T09:19:35;1.80;;;1.67;;
19396;SDS011;9834;48.076;11.878;2022-07-29T09:22:05;2.58;;;1.80;;
19396;SDS011;9834;48.076;11.878;2022-07-29T09:24:38;1.63;;;1.45;;
19396;SDS011;9834;48.076;11.878;2022-07-29T09:27:10;3.50;;;1.70;;
19396;SDS011;9834;48.076;11.878;2022-07-29T09:29:45;4.13;;;1.77;;
19396;SDS011;9834;48.076;11.878;2022-07-29T09:32:12;2.03;;;1.92;;
19396;SDS011;9834;48.076;11.878;2022-07-29T09:34:40;1.90;;;1.70;;
19396;SDS011;9834;48.076;11.878;2022-07-29T09:37:08;1.85;;;1.67;;
19396;SDS011;9834;48.076;11.878;2022-07-29T09:39:37;2.22;;;2.03;;
19396;SDS011;9834;48.076;11.878;2022-07-29T09:42:10;3.92;;;1.70;;
19396;SDS011;9834;48.076;11.878;2022-07-29T09:44:42;1.70;;;1.50;;
19396;SDS011;9834;48.076;11.878;2022-07-29T09:47:10;2.38;;;1.70;;
19396;SDS011;9834;48.076;11.878;2022-07-29T09:49:50;3.08;;;1.85;;
19396;SDS011;9834;48.076;11.878;2022-07-29T09:52:20;1.60;;;1.50;;
19396;SDS011;9834;48.076;11.878;2022-07-29T09:54:47;3.88;;;1.85;;
19396;SDS011;9834;48.076;11.878;2022-07-29T09:57:21;2.10;;;1.90;;
19396;SDS011;9834;48.076;11.878;2022-07-29T09:59:57;3.95;;;2.38;;
19396;SDS011;9834;48.076;11.878;2022-07-29T10:02:28;2.60;;;1.77;;
19396;SDS011;9834;48.076;11.878;2022-07-29T10:04:56;4.28;;;2.00;;
19396;SDS011;9834;48.076;11.878;2022-07-29T10:07:25;1.67;;;1.58;;
19396;SDS011;9834;48.076;11.878;2022-07-29T10:09:53;1.95;;;1.70;;
19396;SDS011;9834;48.076;11.878;2022-07-29T10:12:21;1.70;;;1.60;;
19396;SDS011;9834;48.076;11.878;2022-07-29T10:14:49;1.70;;;1.60;;
19396;SDS011;9834;48.076;11.878;2022-07-29T10:17:16;1.83;;;1.73;;
19396;SDS011;9834;48.076;11.878;2022-07-29T10:19:44;1.75;;;1.65;;
19396;SDS011;9834;48.076;11.878;2022-07-29T10:22:12;2.08;;;1.90;;
19396;SDS011;9834;48.076;11.878;2022-07-29T10:24:40;1.65;;;1.55;;
19396;SDS011;9834;48.076;11.878;2022-07-29T10:27:08;5.63;;;2.08;;
19396;SDS011;9834;48.076;11.878;2022-07-29T10:29:35;2.15;;;1.55;;
19396;SDS011;9834;48.076;11.878;2022-07-29T10:32:08;2.35;;;1.63;;
19396;SDS011;9834;48.076;11.878;2022-07-29T10:37:53;2.20;;;1.85;;
19396;SDS011;9834;48.076;11.878;2022-07-29T10:40:36;7.40;;;1.88;;
19396;SDS011;9834;48.076;11.878;2022-07-29T10:43:32;1.77;;;1.67;;
19396;SDS011;9834;48.076;11.878;2022-07-29T10:46:03;5.90;;;2.08;;
19396;SDS011;9834;48.076;11.878;2022-07-29T10:48:30;2.28;;;2.08;;
19396;SDS011;9834;48.076;11.878;2022-07-29T10:50:58;2.15;;;1.95;;
19396;SDS011;9834;48.076;11.878;2022-07-29T10:56:24;3.22;;;1.75;;
19396;SDS011;9834;48.076;11.878;2022-07-29T11:01:53;2.13;;;2.00;;
19396;SDS011;9834;48.076;11.878;2022-07-29T11:07:26;2.78;;;2.10;;
19396;SDS011;9834;48.076;11.878;2022-07-29T11:12:48;2.28;;;2.08;;
19396;SDS011;9834;48.076;11.878;2022-07-29T11:15:16;2.45;;;2.25;;
19396;SDS011;9834;48.076;11.878;2022-07-29T11:20:39;2.53;;;2.33;;
19396;SDS011;9834;48.076;11.878;2022-07-29T11:23:20;3.40;;;2.65;;
19396;SDS011;9834;48.076;11.878;2022-07-29T11:26:12;3.15;;;1.85;;
19396;SDS011;9834;48.076;11.878;2022-07-29T11:28:48;3.30;;;2.22;;
19396;SDS011;9834;48.076;11.878;2022-07-29T11:31:19;2.00;;;1.90;;
19396;SDS011;9834;48.076;11.878;2022-07-29T11:34:12;4.45;;;1.95;;
19396;SDS011;9834;48.076;11.878;2022-07-29T11:39:45;2.20;;;2.00;;
19396;SDS011;9834;48.076;11.878;2022-07-29T11:45:07;6.68;;;2.22;;
19396;SDS011;9834;48.076;11.878;2022-07-29T11:47:36;7.90;;;2.55;;
19396;SDS011;9834;48.076;11.878;2022-07-29T11:50:06;4.70;;;2.25;;
19396;SDS011;9834;48.076;11.878;2022-07-29T11:52:34;3.10;;;2.38;;
19396;SDS011;9834;48.076;11.878;2022-07-29T11:55:08;1.98;;;1.88;;
19396;SDS011;9834;48.076;11.878;2022-07-29T11:57:36;4.57;;;2.40;;
19396;SDS011;9834;48.076;11.878;2022-07-29T12:00:04;2.22;;;2.00;;
19396;SDS011;9834;48.076;11.878;2022-07-29T12:02:40;2.55;;;2.00;;
19396;SDS011;9834;48.076;11.878;2022-07-29T12:05:09;4.93;;;1.88;;
19396;SDS011;9834;48.076;11.878;2022-07-29T12:07:37;4.63;;;2.00;;
19396;SDS011;9834;48.076;11.878;2022-07-29T12:10:05;4.82;;;1.73;;
19396;SDS011;9834;48.076;11.878;2022-07-29T12:12:33;5.15;;;2.00;;
19396;SDS011;9834;48.076;11.878;2022-07-29T12:15:12;2.13;;;1.90;;
19396;SDS011;9834;48.076;11.878;2022-07-29T12:17:40;2.25;;;1.85;;
19396;SDS011;9834;48.076;11.878;2022-07-29T12:20:07;4.95;;;1.83;;
19396;SDS011;9834;48.076;11.878;2022-07-29T12:22:35;2.72;;;1.90;;
19396;SDS011;9834;48.076;11.878;2022-07-29T12:25:05;4.63;;;1.60;;
19396;SDS011;9834;48.076;11.878;2022-07-29T12:27:34;3.45;;;1.75;;
19396;SDS011;9834;48.076;11.878;2022-07-29T12:30:03;1.70;;;1.60;;
19396;SDS011;9834;48.076;11.878;2022-07-29T12:32:34;2.72;;;1.65;;
19396;SDS011;9834;48.076;11.878;2022-07-29T12:35:03;2.60;;;1.70;;
19396;SDS011;9834;48.076;11.878;2022-07-29T12:37:32;2.55;;;1.77;;
19396;SDS011;9834;48.076;11.878;2022-07-29T12:40:00;2.40;;;1.90;;
19396;SDS011;9834;48.076;11.878;2022-07-29T12:42:28;2.70;;;1.95;;
19396;SDS011;9834;48.076;11.878;2022-07-29T12:44:55;2.50;;;1.60;;
19396;SDS011;9834;48.076;11.878;2022-07-29T12:47:22;2.30;;;1.67;;
19396;SDS011;9834;48.076;11.878;2022-07-29T12:49:50;3.28;;;1.85;;
19396;SDS011;9834;48.076;11.878;2022-07-29T12:52:34;1.55;;;1.45;;
19396;SDS011;9834;48.076;11.878;2022-07-29T12:55:01;3.40;;;1.73;;
19396;SDS011;9834;48.076;11.878;2022-07-29T12:57:30;1.90;;;1.80;;
19396;SDS011;9834;48.076;11.878;2022-07-29T13:00:02;2.33;;;2.00;;
19396;SDS011;9834;48.076;11.878;2022-07-29T13:02:32;1.75;;;1.65;;
19396;SDS011;9834;48.076;11.878;2022-07-29T13:05:01;2.17;;;1.60;;
19396;SDS011;9834;48.076;11.878;2022-07-29T13:07:30;2.85;;;1.77;;
19396;SDS011;9834;48.076;11.878;2022-07-29T13:10:10;1.55;;;1.45;;
19396;SDS011;9834;48.076;11.878;2022-07-29T13:12:39;2.58;;;1.67;;
19396;SDS011;9834;48.076;11.878;2022-07-29T13:15:30;1.70;;;1.60;;
19396;SDS011;9834;48.076;11.878;2022-07-29T13:17:58;4.43;;;1.80;;
19396;SDS011;9834;48.076;11.878;2022-07-29T13:20:26;3.92;;;1.60;;
19396;SDS011;9834;48.076;11.878;2022-07-29T13:22:56;2.45;;;1.95;;
19396;SDS011;9834;48.076;11.878;2022-07-29T13:25:24;2.75;;;1.80;;
19396;SDS011;9834;48.076;11.878;2022-07-29T13:27:51;3.58;;;1.67;;
19396;SDS011;9834;48.076;11.878;2022-07-29T13:30:20;2.20;;;1.80;;
19396;SDS011;9834;48.076;11.878;2022-07-29T13:32:47;3.03;;;1.52;;
19396;SDS011;9834;48.076;11.878;2022-07-29T13:35:14;2.63;;;1.45;;
19396;SDS011;9834;48.076;11.878;2022-07-29T13:37:43;1.85;;;1.67;;
19396;SDS011;9834;48.076;11.878;2022-07-29T13:40:10;1.73;;;1.63;;
19396;SDS011;9834;48.076;11.878;2022-07-29T13:42:38;1.70;;;1.30;;
19396;SDS011;9834;48.076;11.878;2022-07-29T13:45:06;2.47;;;1.60;;
19396;SDS011;9834;48.076;11.878;2022-07-29T13:47:35;1.50;;;1.40;;
19396;SDS011;9834;48.076;11.878;2022-07-29T13:50:03;3.20;;;1.73;;
19396;SDS011;9834;48.076;11.878;2022-07-29T13:52:32;4.40;;;1.58;;
19396;SDS011;9834;48.076;11.878;2022-07-29T13:55:01;1.70;;;1.60;;
19396;SDS011;9834;48.076;11.878;2022-07-29T13:57:29;2.38;;;1.80;;
19396;SDS011;9834;48.076;11.878;2022-07-29T13:59:57;3.50;;;1.80;;
19396;SDS011;9834;48.076;11.878;2022-07-29T14:02:24;2.88;;;1.50;;
19396;SDS011;9834;48.076;11.878;2022-07-29T14:04:51;1.67;;;1.58;;
19396;SDS011;9834;48.076;11.878;2022-07-29T14:07:18;3.50;;;1.63;;
19396;SDS011;9834;48.076;11.878;2022-07-29T14:09:45;1.73;;;1.40;;
19396;SDS011;9834;48.076;11.878;2022-07-29T14:12:13;5.97;;;1.83;;
19396;SDS011;9834;48.076;11.878;2022-07-29T14:14:40;4.07;;;1.98;;
19396;SDS011;9834;48.076;11.878;2022-07-29T14:17:08;1.83;;;1.70;;
19396;SDS011;9834;48.076;11.878;2022-07-29T14:19:35;4.57;;;1.90;;
19396;SDS011;9834;48.076;11.878;2022-07-29T14:22:03;2.67;;;1.90;;
19396;SDS011;9834;48.076;11.878;2022-07-29T14:24:30;6.35;;;2.33;;
19396;SDS011;9834;48.076;11.878;2022-07-29T14:26:57;3.10;;;1.90;;
19396;SDS011;9834;48.076;11.878;2022-07-29T14:29:26;7.78;;;2.20;;
19396;SDS011;9834;48.076;11.878;2022-07-29T14:31:53;9.02;;;4.45;;
19396;SDS011;9834;48.076;11.878;2022-07-29T14:34:20;3.88;;;2.20;;
19396;SDS011;9834;48.076;11.878;2022-07-29T14:36:47;3.70;;;2.20;;
19396;SDS011;9834;48.076;11.878;2022-07-29T14:39:14;4.47;;;2.28;;
19396;SDS011;9834;48.076;11.878;2022-07-29T14:41:42;6.95;;;3.00;;
19396;SDS011;9834;48.076;11.878;2022-07-29T14:44:09;5.07;;;2.72;;
19396;SDS011;9834;48.076;11.878;2022-07-29T14:46:37;3.83;;;2.50;;
19396;SDS011;9834;48.076;11.878;2022-07-29T14:49:05;2.65;;;2.45;;
19396;SDS011;9834;48.076;11.878;2022-07-29T14:51:32;2.03;;;1.88;;
19396;SDS011;9834;48.076;11.878;2022-07-29T14:53:59;2.67;;;2.03;;
19396;SDS011;9834;48.076;11.878;2022-07-29T14:56:26;2.88;;;2.03;;
19396;SDS011;9834;48.076;11.878;2022-07-29T14:58:55;4.45;;;2.05;;
19396;SDS011;9834;48.076;11.878;2022-07-29T15:01:22;1.90;;;1.80;;
19396;SDS011;9834;48.076;11.878;2022-07-29T15:03:50;4.60;;;1.65;;
19396;SDS011;9834;48.076;11.878;2022-07-29T15:06:17;2.13;;;1.77;;
19396;SDS011;9834;48.076;11.878;2022-07-29T15:08:44;2.50;;;1.67;;
19396;SDS011;9834;48.076;11.878;2022-07-29T15:11:11;2.33;;;1.90;;
19396;SDS011;9834;48.076;11.878;2022-07-29T15:13:38;2.35;;;1.70;;
19396;SDS011;9834;48.076;11.878;2022-07-29T15:16:05;1.63;;;1.50;;
19396;SDS011;9834;48.076;11.878;2022-07-29T15:18:34;1.60;;;1.42;;
19396;SDS011;9834;48.076;11.878;2022-07-29T15:21:04;2.90;;;1.77;;
19396;SDS011;9834;48.076;11.878;2022-07-29T15:23:32;1.70;;;1.60;;
19396;SDS011;9834;48.076;11.878;2022-07-29T15:26:01;3.55;;;1.60;;